»·PEaware :: DAL2806 KSFO-KSAN

DAL2806 :: KSFO-KSAN

FLIGHT INFORMATION

Flight Status: Arrived
Operator:
Delta Air Lines
More flights by this operator :: More flights under this callsign
Pilot: Kirk M. (10269)
Aircraft: AIRBUS A320
(A320)
More flights by this aircraft type
Origin: KSFO San Francisco Intl
United States
Destination: KSAN San Diego Intl-Lindbergh
United States
More flights between these airports :: More routes between these airports
Route: +OFFSH1 MCKEY LAX BAYVU5
File this flight plan on PilotEdge
Remarks: PBN / A1B1C1D1O1S1 DOF / 171123 REG / N320SB EET / KZLA0027 OPR / DAL PER / C RMK / TCAS SIMBRIEF
Altitude:
(Current/Filed)
39,000ft
Speed:
(Current/Filed)
447kts
Departed: 22-Nov-17 07:37 PM
Arrived: 22-Nov-17 08:52 PM
Distance/Time
Traveled:
388nm/1:15
Distance/Time
To Go:
Arrived

Flight Plot

Page will automatically refresh every two minutes.


Map Options




Map Legend


Flown Route
Filed Route
Departure Airport
Arrival Airport
Navaid (VOR, NDB)
Fix

Horizontal Profiles

Position Reports

Time Latitude Longitude Heading Altitude Ground
Speed
22-Nov-17 19:13 37.615523 -122.382684 224 32ft 0kts
22-Nov-17 19:14 37.615523 -122.382684 224 32ft 0kts
22-Nov-17 19:15 37.615523 -122.382684 224 32ft 0kts
22-Nov-17 19:16 37.615523 -122.382684 224 32ft 0kts
22-Nov-17 19:17 37.615523 -122.382684 224 32ft 0kts
22-Nov-17 19:18 37.615523 -122.382684 224 32ft 0kts
22-Nov-17 19:19 37.615523 -122.382684 224 32ft 0kts
22-Nov-17 19:20 37.615523 -122.382684 224 32ft 0kts
22-Nov-17 19:21 37.615523 -122.382684 224 32ft 0kts
22-Nov-17 19:22 37.615523 -122.382684 224 32ft 0kts
22-Nov-17 19:23 37.615523 -122.382684 224 32ft 0kts
22-Nov-17 19:24 37.615523 -122.382684 224 32ft 0kts
22-Nov-17 19:25 37.615742 -122.382535 188 32ft 2kts
22-Nov-17 19:26 37.616218 -122.382878 110 32ft 0kts
22-Nov-17 19:27 37.616218 -122.382878 110 32ft 0kts
22-Nov-17 19:28 37.616218 -122.382878 110 32ft 0kts
22-Nov-17 19:29 37.616210 -122.382854 112 32ft 2kts
22-Nov-17 19:30 37.613848 -122.381540 208 32ft 14kts
22-Nov-17 19:31 37.613515 -122.381760 207 32ft 0kts
22-Nov-17 19:32 37.613515 -122.381760 207 32ft 0kts
22-Nov-17 19:33 37.613515 -122.381760 207 32ft 0kts
22-Nov-17 19:34 37.613515 -122.381760 207 32ft 0kts
22-Nov-17 19:35 37.613515 -122.381760 207 32ft 0kts
22-Nov-17 19:36 37.613515 -122.381760 207 32ft 0kts
22-Nov-17 19:37 37.613515 -122.381760 207 32ft 0kts
22-Nov-17 19:38 37.613515 -122.381760 207 32ft 0kts
22-Nov-17 19:39 37.611556 -122.382943 206 32ft 16kts
22-Nov-17 19:40 37.608638 -122.384460 123 32ft 5kts
22-Nov-17 19:41 37.608268 -122.383342 112 32ft 11kts
22-Nov-17 19:42 37.620414 -122.374502 35 51ft 164kts
22-Nov-17 19:43 37.673674 -122.361399 2 2893ft 246kts
22-Nov-17 19:44 37.728808 -122.409726 269 6025ft 292kts
22-Nov-17 19:45 37.682965 -122.484636 217 10237ft 282kts
22-Nov-17 19:46 37.619395 -122.553045 217 13166ft 312kts
22-Nov-17 19:47 37.551010 -122.619020 209 16375ft 315kts
22-Nov-17 19:48 37.460777 -122.616558 179 18829ft 336kts
22-Nov-17 19:49 37.368091 -122.599946 179 19425ft 342kts
22-Nov-17 19:50 37.272757 -122.582939 179 21614ft 353kts
22-Nov-17 19:51 37.174360 -122.565427 180 23580ft 365kts
22-Nov-17 19:52 37.073116 -122.547380 180 25411ft 374kts
22-Nov-17 19:53 36.969162 -122.529029 180 27060ft 384kts
22-Nov-17 19:54 36.862819 -122.510211 180 28561ft 394kts
22-Nov-17 19:55 36.753576 -122.491001 180 29931ft 402kts
22-Nov-17 19:56 36.641583 -122.471280 180 31140ft 411kts
22-Nov-17 19:57 36.528778 -122.440327 160 32167ft 439kts
22-Nov-17 19:58 36.440257 -122.327720 135 33175ft 471kts
22-Nov-17 19:59 36.362300 -122.197990 135 34329ft 470kts
22-Nov-17 20:00 36.283587 -122.069209 135 35446ft 468kts
22-Nov-17 20:01 36.205079 -121.941465 135 36441ft 466kts
22-Nov-17 20:02 36.126825 -121.814448 135 37186ft 467kts
22-Nov-17 20:03 36.048234 -121.687338 136 37204ft 465kts
22-Nov-17 20:04 35.969680 -121.560862 135 37205ft 466kts
22-Nov-17 20:05 35.902684 -121.453276 136 37206ft 467kts
22-Nov-17 20:06 35.825018 -121.328996 136 37204ft 466kts
22-Nov-17 20:07 35.746415 -121.203668 136 37205ft 466kts
22-Nov-17 20:08 35.667220 -121.077877 136 37236ft 466kts
22-Nov-17 20:09 35.587945 -120.952389 136 37232ft 467kts
22-Nov-17 20:10 35.508248 -120.826554 136 37234ft 467kts
22-Nov-17 20:11 35.429071 -120.702195 136 37233ft 468kts
22-Nov-17 20:12 35.368446 -120.607289 136 37207ft 468kts
22-Nov-17 20:13 35.300613 -120.501349 136 37206ft 468kts
22-Nov-17 20:14 35.220545 -120.376600 136 37205ft 468kts
22-Nov-17 20:15 35.141292 -120.253772 137 37206ft 468kts
22-Nov-17 20:16 35.061038 -120.129874 135 37208ft 471kts
22-Nov-17 20:17 34.980517 -120.005775 134 37206ft 468kts
22-Nov-17 20:18 34.900101 -119.882344 134 37206ft 469kts
22-Nov-17 20:19 34.819104 -119.758460 134 37206ft 469kts
22-Nov-17 20:20 34.738164 -119.634960 134 37149ft 469kts
22-Nov-17 20:21 34.656914 -119.511553 133 37152ft 469kts
22-Nov-17 20:22 34.575367 -119.388161 132 37152ft 470kts
22-Nov-17 20:23 34.494757 -119.266569 134 37152ft 468kts
22-Nov-17 20:24 34.413866 -119.144973 134 36588ft 468kts
22-Nov-17 20:25 34.339645 -119.033762 134 35555ft 468kts
22-Nov-17 20:26 34.258008 -118.911869 134 33247ft 471kts
22-Nov-17 20:27 34.176779 -118.790948 134 31019ft 463kts
22-Nov-17 20:28 34.096921 -118.672478 134 28834ft 453kts
22-Nov-17 20:29 34.018607 -118.556698 133 26585ft 443kts
22-Nov-17 20:30 33.943413 -118.446037 134 24446ft 430kts
22-Nov-17 20:31 33.875671 -118.358090 136 24116ft 403kts
22-Nov-17 20:32 33.801832 -118.263466 137 22576ft 395kts
22-Nov-17 20:33 33.728617 -118.169860 137 21726ft 387kts
22-Nov-17 20:34 33.655363 -118.076467 136 20836ft 382kts
22-Nov-17 20:35 33.583571 -117.985162 136 19975ft 376kts
22-Nov-17 20:36 33.512044 -117.894431 136 19113ft 372kts
22-Nov-17 20:37 33.441817 -117.805573 136 18272ft 367kts
22-Nov-17 20:38 33.372525 -117.718120 136 17449ft 359kts
22-Nov-17 20:39 33.304568 -117.632561 136 16636ft 350kts
22-Nov-17 20:40 33.235078 -117.554445 145 15847ft 340kts
22-Nov-17 20:41 33.160258 -117.488254 144 15083ft 333kts
22-Nov-17 20:42 33.083382 -117.426041 146 13716ft 341kts
22-Nov-17 20:43 33.007920 -117.365671 145 11079ft 319kts
22-Nov-17 20:44 32.938322 -117.310147 145 9966ft 272kts
22-Nov-17 20:45 32.877219 -117.261375 145 8689ft 268kts
22-Nov-17 20:46 32.815838 -117.210253 128 7258ft 270kts
22-Nov-17 20:47 32.793018 -117.127836 105 6271ft 253kts
22-Nov-17 20:48 32.774258 -117.052455 115 6010ft 234kts
22-Nov-17 20:49 32.747636 -116.981901 107 6009ft 235kts
22-Nov-17 20:50 32.727970 -116.910131 107 5381ft 208kts
22-Nov-17 20:51 32.687900 -116.900449 245 4155ft 198kts
22-Nov-17 20:52 32.693473 -116.965067 273 4008ft 198kts
22-Nov-17 20:53 32.695635 -117.025615 273 3129ft 187kts
22-Nov-17 20:54 32.706728 -117.081426 288 1720ft 158kts
22-Nov-17 20:55 32.718375 -117.127198 284 1106ft 131kts
22-Nov-17 20:56 32.728468 -117.169140 284 260ft 127kts
22-Nov-17 20:57 32.734280 -117.194599 254 22ft 7kts
22-Nov-17 20:58 32.734418 -117.199528 200 20ft 7kts
22-Nov-17 20:59 32.733698 -117.198948 147 21ft 0kts
22-Nov-17 21:00 32.733699 -117.198948 147 21ft 0kts
22-Nov-17 21:01 32.733699 -117.198948 147 21ft 0kts
22-Nov-17 21:02 32.733699 -117.198948 147 21ft 0kts

Navigation Log

Ident Type
1. KSFO Airport
2. SENZY Fix
3. SEGUL Fix
4. CYPRS Fix
5. MCKEY Fix
6. LAX Navaid
7. OTISS Fix
8. HUBRD Fix
9. BAYVU Fix
10. LCOVE Fix
11. STEPN Fix
12. KLOMN Fix
13. NADDO Fix
14. KSAN Airport